sensor_id;sensor_type;location;lat;lon;timestamp;P1;durP1;ratioP1;P2;durP2;ratioP2
60969;SDS011;46841;48.938;9.502;2023-02-28T00:01:35;7.93;;;4.25;;
60969;SDS011;46841;48.938;9.502;2023-02-28T00:04:01;8.68;;;4.82;;
60969;SDS011;46841;48.938;9.502;2023-02-28T00:06:26;7.97;;;4.63;;
60969;SDS011;46841;48.938;9.502;2023-02-28T00:08:51;9.27;;;4.60;;
60969;SDS011;46841;48.938;9.502;2023-02-28T00:11:17;9.98;;;4.43;;
60969;SDS011;46841;48.938;9.502;2023-02-28T00:13:43;7.47;;;4.90;;
60969;SDS011;46841;48.938;9.502;2023-02-28T00:16:12;10.55;;;4.45;;
60969;SDS011;46841;48.938;9.502;2023-02-28T00:18:38;10.10;;;5.38;;
60969;SDS011;46841;48.938;9.502;2023-02-28T00:21:04;7.30;;;4.50;;
60969;SDS011;46841;48.938;9.502;2023-02-28T00:23:29;10.73;;;5.25;;
60969;SDS011;46841;48.938;9.502;2023-02-28T00:25:55;8.55;;;5.03;;
60969;SDS011;46841;48.938;9.502;2023-02-28T00:28:20;10.65;;;4.82;;
60969;SDS011;46841;48.938;9.502;2023-02-28T00:30:46;8.82;;;4.85;;
60969;SDS011;46841;48.938;9.502;2023-02-28T00:33:11;7.15;;;4.80;;
60969;SDS011;46841;48.938;9.502;2023-02-28T00:35:36;8.13;;;4.70;;
60969;SDS011;46841;48.938;9.502;2023-02-28T00:38:02;7.47;;;4.60;;
60969;SDS011;46841;48.938;9.502;2023-02-28T00:40:27;8.70;;;5.10;;
60969;SDS011;46841;48.938;9.502;2023-02-28T00:42:52;10.82;;;5.82;;
60969;SDS011;46841;48.938;9.502;2023-02-28T00:45:18;7.43;;;4.93;;
60969;SDS011;46841;48.938;9.502;2023-02-28T00:47:43;9.50;;;5.25;;
60969;SDS011;46841;48.938;9.502;2023-02-28T00:50:10;12.85;;;5.38;;
60969;SDS011;46841;48.938;9.502;2023-02-28T00:52:35;9.50;;;5.20;;
60969;SDS011;46841;48.938;9.502;2023-02-28T00:55:01;7.75;;;5.03;;
60969;SDS011;46841;48.938;9.502;2023-02-28T00:57:26;14.95;;;5.95;;
60969;SDS011;46841;48.938;9.502;2023-02-28T00:59:51;12.88;;;5.55;;
60969;SDS011;46841;48.938;9.502;2023-02-28T01:02:20;8.25;;;4.90;;
60969;SDS011;46841;48.938;9.502;2023-02-28T01:04:46;9.43;;;4.93;;
60969;SDS011;46841;48.938;9.502;2023-02-28T01:07:11;9.55;;;5.15;;
60969;SDS011;46841;48.938;9.502;2023-02-28T01:09:36;12.80;;;5.93;;
60969;SDS011;46841;48.938;9.502;2023-02-28T01:12:03;8.97;;;5.77;;
60969;SDS011;46841;48.938;9.502;2023-02-28T01:14:28;8.05;;;5.35;;
60969;SDS011;46841;48.938;9.502;2023-02-28T01:16:54;12.57;;;6.57;;
60969;SDS011;46841;48.938;9.502;2023-02-28T01:19:19;10.57;;;5.43;;
60969;SDS011;46841;48.938;9.502;2023-02-28T01:21:45;12.18;;;5.28;;
60969;SDS011;46841;48.938;9.502;2023-02-28T01:24:11;10.50;;;5.60;;
60969;SDS011;46841;48.938;9.502;2023-02-28T01:26:37;12.63;;;5.85;;
60969;SDS011;46841;48.938;9.502;2023-02-28T01:29:06;10.52;;;5.72;;
60969;SDS011;46841;48.938;9.502;2023-02-28T01:31:31;13.07;;;8.25;;
60969;SDS011;46841;48.938;9.502;2023-02-28T01:33:56;11.90;;;5.80;;
60969;SDS011;46841;48.938;9.502;2023-02-28T01:36:23;13.50;;;5.95;;
60969;SDS011;46841;48.938;9.502;2023-02-28T01:38:48;11.10;;;5.53;;
60969;SDS011;46841;48.938;9.502;2023-02-28T01:41:15;11.70;;;5.68;;
60969;SDS011;46841;48.938;9.502;2023-02-28T01:46:06;9.87;;;5.93;;
60969;SDS011;46841;48.938;9.502;2023-02-28T01:48:32;13.38;;;5.97;;
60969;SDS011;46841;48.938;9.502;2023-02-28T01:50:59;11.67;;;5.97;;
60969;SDS011;46841;48.938;9.502;2023-02-28T01:53:36;14.13;;;5.93;;
60969;SDS011;46841;48.938;9.502;2023-02-28T01:56:03;13.75;;;6.40;;
60969;SDS011;46841;48.938;9.502;2023-02-28T01:58:29;11.55;;;6.60;;
60969;SDS011;46841;48.938;9.502;2023-02-28T02:00:55;12.40;;;5.82;;
60969;SDS011;46841;48.938;9.502;2023-02-28T02:03:22;13.38;;;6.93;;
60969;SDS011;46841;48.938;9.502;2023-02-28T02:05:48;12.00;;;5.93;;
60969;SDS011;46841;48.938;9.502;2023-02-28T02:08:16;13.00;;;6.78;;
60969;SDS011;46841;48.938;9.502;2023-02-28T02:21:35;11.57;;;6.85;;
60969;SDS011;46841;48.938;9.502;2023-02-28T02:36:53;12.10;;;7.72;;
60969;SDS011;46841;48.938;9.502;2023-02-28T02:39:58;12.80;;;7.22;;
60969;SDS011;46841;48.938;9.502;2023-02-28T02:42:36;12.70;;;6.75;;
60969;SDS011;46841;48.938;9.502;2023-02-28T02:45:08;13.50;;;8.55;;
60969;SDS011;46841;48.938;9.502;2023-02-28T02:47:34;13.00;;;7.20;;
60969;SDS011;46841;48.938;9.502;2023-02-28T02:50:03;11.68;;;6.68;;
60969;SDS011;46841;48.938;9.502;2023-02-28T02:52:36;12.10;;;6.18;;
60969;SDS011;46841;48.938;9.502;2023-02-28T02:55:04;12.00;;;6.55;;
60969;SDS011;46841;48.938;9.502;2023-02-28T03:00:12;12.35;;;6.90;;
60969;SDS011;46841;48.938;9.502;2023-02-28T03:02:38;9.50;;;6.13;;
60969;SDS011;46841;48.938;9.502;2023-02-28T03:05:07;12.47;;;7.37;;
60969;SDS011;46841;48.938;9.502;2023-02-28T03:07:33;13.98;;;7.07;;
60969;SDS011;46841;48.938;9.502;2023-02-28T03:09:58;13.50;;;7.13;;
60969;SDS011;46841;48.938;9.502;2023-02-28T03:12:28;14.88;;;7.35;;
60969;SDS011;46841;48.938;9.502;2023-02-28T03:25:07;14.98;;;7.22;;
60969;SDS011;46841;48.938;9.502;2023-02-28T03:32:57;18.23;;;7.47;;
60969;SDS011;46841;48.938;9.502;2023-02-28T03:35:24;11.48;;;7.70;;
60969;SDS011;46841;48.938;9.502;2023-02-28T03:37:52;13.30;;;6.78;;
60969;SDS011;46841;48.938;9.502;2023-02-28T03:40:21;13.98;;;7.43;;
60969;SDS011;46841;48.938;9.502;2023-02-28T03:42:48;16.35;;;7.53;;
60969;SDS011;46841;48.938;9.502;2023-02-28T03:47:51;13.73;;;7.22;;
60969;SDS011;46841;48.938;9.502;2023-02-28T03:53:00;11.80;;;7.07;;
60969;SDS011;46841;48.938;9.502;2023-02-28T03:55:30;13.85;;;7.18;;
60969;SDS011;46841;48.938;9.502;2023-02-28T03:58:05;14.32;;;7.72;;
60969;SDS011;46841;48.938;9.502;2023-02-28T04:00:39;17.20;;;8.20;;
60969;SDS011;46841;48.938;9.502;2023-02-28T04:03:05;18.60;;;8.25;;
60969;SDS011;46841;48.938;9.502;2023-02-28T04:05:30;12.18;;;7.40;;
60969;SDS011;46841;48.938;9.502;2023-02-28T04:08:06;14.93;;;7.57;;
60969;SDS011;46841;48.938;9.502;2023-02-28T04:10:32;17.15;;;7.85;;
60969;SDS011;46841;48.938;9.502;2023-02-28T04:12:57;16.98;;;7.90;;
60969;SDS011;46841;48.938;9.502;2023-02-28T04:15:23;13.68;;;7.47;;
60969;SDS011;46841;48.938;9.502;2023-02-28T04:17:50;21.50;;;11.10;;
60969;SDS011;46841;48.938;9.502;2023-02-28T04:20:15;17.17;;;8.30;;
60969;SDS011;46841;48.938;9.502;2023-02-28T04:22:40;15.63;;;8.35;;
60969;SDS011;46841;48.938;9.502;2023-02-28T04:25:06;14.55;;;8.30;;
60969;SDS011;46841;48.938;9.502;2023-02-28T04:27:31;16.73;;;8.27;;
60969;SDS011;46841;48.938;9.502;2023-02-28T04:29:57;15.48;;;7.68;;
60969;SDS011;46841;48.938;9.502;2023-02-28T04:32:22;14.52;;;8.48;;
60969;SDS011;46841;48.938;9.502;2023-02-28T04:34:47;16.42;;;8.57;;
60969;SDS011;46841;48.938;9.502;2023-02-28T04:37:15;15.88;;;8.10;;
60969;SDS011;46841;48.938;9.502;2023-02-28T04:39:41;21.25;;;10.80;;
60969;SDS011;46841;48.938;9.502;2023-02-28T04:42:06;16.33;;;8.88;;
60969;SDS011;46841;48.938;9.502;2023-02-28T04:44:31;16.42;;;7.65;;
60969;SDS011;46841;48.938;9.502;2023-02-28T04:46:57;19.17;;;8.15;;
60969;SDS011;46841;48.938;9.502;2023-02-28T04:49:22;16.60;;;8.88;;
60969;SDS011;46841;48.938;9.502;2023-02-28T04:51:47;15.18;;;7.68;;
60969;SDS011;46841;48.938;9.502;2023-02-28T04:54:15;16.75;;;8.55;;
60969;SDS011;46841;48.938;9.502;2023-02-28T04:56:41;17.50;;;9.05;;
60969;SDS011;46841;48.938;9.502;2023-02-28T04:59:06;14.93;;;8.15;;
60969;SDS011;46841;48.938;9.502;2023-02-28T05:01:32;19.63;;;9.57;;
60969;SDS011;46841;48.938;9.502;2023-02-28T05:03:59;21.13;;;8.60;;
60969;SDS011;46841;48.938;9.502;2023-02-28T05:06:25;16.33;;;9.23;;
60969;SDS011;46841;48.938;9.502;2023-02-28T05:08:51;15.98;;;8.77;;
60969;SDS011;46841;48.938;9.502;2023-02-28T05:11:24;15.07;;;8.15;;
60969;SDS011;46841;48.938;9.502;2023-02-28T05:13:50;21.30;;;10.50;;
60969;SDS011;46841;48.938;9.502;2023-02-28T05:16:16;18.77;;;9.52;;
60969;SDS011;46841;48.938;9.502;2023-02-28T05:18:41;22.45;;;8.73;;
60969;SDS011;46841;48.938;9.502;2023-02-28T05:21:15;16.13;;;8.77;;
60969;SDS011;46841;48.938;9.502;2023-02-28T05:23:48;18.23;;;8.80;;
60969;SDS011;46841;48.938;9.502;2023-02-28T05:26:14;18.27;;;9.27;;
60969;SDS011;46841;48.938;9.502;2023-02-28T05:28:39;15.90;;;8.07;;
60969;SDS011;46841;48.938;9.502;2023-02-28T05:31:04;22.60;;;9.98;;
60969;SDS011;46841;48.938;9.502;2023-02-28T05:33:29;21.92;;;10.82;;
60969;SDS011;46841;48.938;9.502;2023-02-28T05:35:55;20.30;;;9.25;;
60969;SDS011;46841;48.938;9.502;2023-02-28T05:38:20;19.23;;;9.95;;
60969;SDS011;46841;48.938;9.502;2023-02-28T05:40:45;17.63;;;8.35;;
60969;SDS011;46841;48.938;9.502;2023-02-28T05:43:11;18.35;;;11.77;;
60969;SDS011;46841;48.938;9.502;2023-02-28T05:45:36;16.77;;;8.93;;
60969;SDS011;46841;48.938;9.502;2023-02-28T05:48:02;20.30;;;9.68;;
60969;SDS011;46841;48.938;9.502;2023-02-28T05:50:27;19.70;;;11.90;;
60969;SDS011;46841;48.938;9.502;2023-02-28T05:52:52;21.70;;;9.90;;
60969;SDS011;46841;48.938;9.502;2023-02-28T05:55:18;21.20;;;11.20;;
60969;SDS011;46841;48.938;9.502;2023-02-28T05:57:43;18.90;;;9.82;;
60969;SDS011;46841;48.938;9.502;2023-02-28T06:00:09;17.58;;;9.77;;
60969;SDS011;46841;48.938;9.502;2023-02-28T06:02:38;18.98;;;9.30;;
60969;SDS011;46841;48.938;9.502;2023-02-28T06:05:04;17.50;;;9.53;;
60969;SDS011;46841;48.938;9.502;2023-02-28T06:07:29;26.90;;;10.50;;
60969;SDS011;46841;48.938;9.502;2023-02-28T06:09:54;20.17;;;10.45;;
60969;SDS011;46841;48.938;9.502;2023-02-28T06:12:19;21.35;;;9.45;;
60969;SDS011;46841;48.938;9.502;2023-02-28T06:14:45;16.67;;;9.15;;
60969;SDS011;46841;48.938;9.502;2023-02-28T06:17:10;17.92;;;8.40;;
60969;SDS011;46841;48.938;9.502;2023-02-28T06:19:38;21.98;;;10.70;;
60969;SDS011;46841;48.938;9.502;2023-02-28T06:22:05;18.60;;;9.00;;
60969;SDS011;46841;48.938;9.502;2023-02-28T06:24:30;19.77;;;9.02;;
60969;SDS011;46841;48.938;9.502;2023-02-28T06:26:56;21.45;;;9.88;;
60969;SDS011;46841;48.938;9.502;2023-02-28T06:31:49;25.17;;;9.80;;
60969;SDS011;46841;48.938;9.502;2023-02-28T06:34:14;21.52;;;10.57;;
60969;SDS011;46841;48.938;9.502;2023-02-28T06:36:40;18.90;;;10.05;;
60969;SDS011;46841;48.938;9.502;2023-02-28T06:39:06;17.13;;;10.13;;
60969;SDS011;46841;48.938;9.502;2023-02-28T06:41:31;24.80;;;9.32;;
60969;SDS011;46841;48.938;9.502;2023-02-28T06:43:57;26.77;;;10.52;;
60969;SDS011;46841;48.938;9.502;2023-02-28T06:46:22;25.42;;;9.95;;
60969;SDS011;46841;48.938;9.502;2023-02-28T06:48:48;23.73;;;11.00;;
60969;SDS011;46841;48.938;9.502;2023-02-28T06:51:17;20.15;;;9.80;;
60969;SDS011;46841;48.938;9.502;2023-02-28T06:53:45;18.85;;;9.60;;
60969;SDS011;46841;48.938;9.502;2023-02-28T06:56:11;21.55;;;10.50;;
60969;SDS011;46841;48.938;9.502;2023-02-28T06:58:37;21.90;;;10.63;;
60969;SDS011;46841;48.938;9.502;2023-02-28T07:01:04;24.33;;;12.23;;
60969;SDS011;46841;48.938;9.502;2023-02-28T07:03:29;20.42;;;11.75;;
60969;SDS011;46841;48.938;9.502;2023-02-28T07:05:55;21.55;;;11.02;;
60969;SDS011;46841;48.938;9.502;2023-02-28T07:08:22;26.52;;;12.27;;
60969;SDS011;46841;48.938;9.502;2023-02-28T07:10:47;22.20;;;11.48;;
60969;SDS011;46841;48.938;9.502;2023-02-28T07:13:16;22.25;;;11.93;;
60969;SDS011;46841;48.938;9.502;2023-02-28T07:15:41;20.05;;;11.13;;
60969;SDS011;46841;48.938;9.502;2023-02-28T07:18:06;21.73;;;11.07;;
60969;SDS011;46841;48.938;9.502;2023-02-28T07:20:32;22.38;;;10.60;;
60969;SDS011;46841;48.938;9.502;2023-02-28T07:22:57;22.63;;;11.35;;
60969;SDS011;46841;48.938;9.502;2023-02-28T07:25:23;23.23;;;10.90;;
60969;SDS011;46841;48.938;9.502;2023-02-28T07:27:48;21.83;;;11.43;;
60969;SDS011;46841;48.938;9.502;2023-02-28T07:30:14;22.38;;;10.15;;
60969;SDS011;46841;48.938;9.502;2023-02-28T07:32:39;24.13;;;10.90;;
60969;SDS011;46841;48.938;9.502;2023-02-28T07:35:04;23.98;;;12.13;;
60969;SDS011;46841;48.938;9.502;2023-02-28T07:37:30;19.52;;;11.15;;
60969;SDS011;46841;48.938;9.502;2023-02-28T07:39:56;22.90;;;10.90;;
60969;SDS011;46841;48.938;9.502;2023-02-28T07:42:21;23.83;;;12.57;;
60969;SDS011;46841;48.938;9.502;2023-02-28T07:44:47;22.55;;;11.52;;
60969;SDS011;46841;48.938;9.502;2023-02-28T07:47:12;21.70;;;10.70;;
60969;SDS011;46841;48.938;9.502;2023-02-28T07:49:37;43.55;;;19.27;;
60969;SDS011;46841;48.938;9.502;2023-02-28T07:52:03;48.42;;;22.83;;
60969;SDS011;46841;48.938;9.502;2023-02-28T07:54:29;26.02;;;12.57;;
60969;SDS011;46841;48.938;9.502;2023-02-28T07:56:54;31.55;;;14.50;;
60969;SDS011;46841;48.938;9.502;2023-02-28T07:59:19;24.40;;;12.13;;
60969;SDS011;46841;48.938;9.502;2023-02-28T08:01:45;23.50;;;12.07;;
60969;SDS011;46841;48.938;9.502;2023-02-28T08:04:10;24.00;;;12.35;;
60969;SDS011;46841;48.938;9.502;2023-02-28T08:06:38;22.55;;;11.65;;
60969;SDS011;46841;48.938;9.502;2023-02-28T08:09:03;26.27;;;12.55;;
60969;SDS011;46841;48.938;9.502;2023-02-28T08:11:31;24.95;;;12.52;;
60969;SDS011;46841;48.938;9.502;2023-02-28T08:13:59;27.20;;;11.88;;
60969;SDS011;46841;48.938;9.502;2023-02-28T08:16:25;24.83;;;11.80;;
60969;SDS011;46841;48.938;9.502;2023-02-28T08:18:51;26.35;;;13.43;;
60969;SDS011;46841;48.938;9.502;2023-02-28T08:21:16;23.60;;;12.07;;
60969;SDS011;46841;48.938;9.502;2023-02-28T08:23:42;24.23;;;12.07;;
60969;SDS011;46841;48.938;9.502;2023-02-28T08:26:07;27.02;;;13.45;;
60969;SDS011;46841;48.938;9.502;2023-02-28T08:28:32;28.02;;;12.77;;
60969;SDS011;46841;48.938;9.502;2023-02-28T08:30:58;28.48;;;13.35;;
60969;SDS011;46841;48.938;9.502;2023-02-28T08:33:23;25.88;;;12.20;;
60969;SDS011;46841;48.938;9.502;2023-02-28T08:35:52;25.65;;;12.65;;
60969;SDS011;46841;48.938;9.502;2023-02-28T08:38:17;29.30;;;12.77;;
60969;SDS011;46841;48.938;9.502;2023-02-28T08:40:42;47.53;;;20.80;;
60969;SDS011;46841;48.938;9.502;2023-02-28T08:43:07;29.30;;;15.80;;
60969;SDS011;46841;48.938;9.502;2023-02-28T08:45:33;35.05;;;16.48;;
60969;SDS011;46841;48.938;9.502;2023-02-28T08:47:58;28.38;;;13.48;;
60969;SDS011;46841;48.938;9.502;2023-02-28T08:50:23;33.22;;;14.48;;
60969;SDS011;46841;48.938;9.502;2023-02-28T08:52:49;28.95;;;15.90;;
60969;SDS011;46841;48.938;9.502;2023-02-28T08:55:14;24.67;;;13.45;;
60969;SDS011;46841;48.938;9.502;2023-02-28T08:57:42;27.17;;;13.18;;
60969;SDS011;46841;48.938;9.502;2023-02-28T09:02:38;26.40;;;12.55;;
60969;SDS011;46841;48.938;9.502;2023-02-28T09:05:04;28.58;;;13.75;;
60969;SDS011;46841;48.938;9.502;2023-02-28T09:07:29;35.08;;;14.23;;
60969;SDS011;46841;48.938;9.502;2023-02-28T09:09:54;23.70;;;13.00;;
60969;SDS011;46841;48.938;9.502;2023-02-28T09:12:26;25.77;;;13.75;;
60969;SDS011;46841;48.938;9.502;2023-02-28T09:14:51;27.05;;;14.23;;
60969;SDS011;46841;48.938;9.502;2023-02-28T09:17:17;30.35;;;14.23;;
60969;SDS011;46841;48.938;9.502;2023-02-28T09:19:42;32.97;;;14.10;;
60969;SDS011;46841;48.938;9.502;2023-02-28T09:22:09;29.15;;;16.25;;
60969;SDS011;46841;48.938;9.502;2023-02-28T09:24:35;28.65;;;15.02;;
60969;SDS011;46841;48.938;9.502;2023-02-28T09:27:00;28.08;;;14.23;;
60969;SDS011;46841;48.938;9.502;2023-02-28T09:29:25;27.50;;;14.35;;
60969;SDS011;46841;48.938;9.502;2023-02-28T09:31:51;30.17;;;14.95;;
60969;SDS011;46841;48.938;9.502;2023-02-28T09:34:17;26.75;;;13.95;;
60969;SDS011;46841;48.938;9.502;2023-02-28T09:36:42;25.27;;;13.18;;
60969;SDS011;46841;48.938;9.502;2023-02-28T09:39:07;29.17;;;13.27;;
60969;SDS011;46841;48.938;9.502;2023-02-28T09:41:38;28.70;;;13.80;;
60969;SDS011;46841;48.938;9.502;2023-02-28T09:44:05;31.52;;;15.68;;
60969;SDS011;46841;48.938;9.502;2023-02-28T09:46:40;30.52;;;13.98;;
60969;SDS011;46841;48.938;9.502;2023-02-28T09:49:10;30.95;;;13.73;;
60969;SDS011;46841;48.938;9.502;2023-02-28T09:51:49;26.30;;;13.95;;
60969;SDS011;46841;48.938;9.502;2023-02-28T09:54:18;24.10;;;13.15;;
60969;SDS011;46841;48.938;9.502;2023-02-28T09:56:45;24.50;;;13.23;;
60969;SDS011;46841;48.938;9.502;2023-02-28T09:59:23;27.67;;;15.65;;
60969;SDS011;46841;48.938;9.502;2023-02-28T10:01:54;26.60;;;13.50;;
60969;SDS011;46841;48.938;9.502;2023-02-28T10:07:00;24.83;;;13.30;;
60969;SDS011;46841;48.938;9.502;2023-02-28T10:11:52;21.45;;;12.13;;
60969;SDS011;46841;48.938;9.502;2023-02-28T10:14:19;27.15;;;13.88;;
60969;SDS011;46841;48.938;9.502;2023-02-28T10:22:08;28.05;;;14.63;;
60969;SDS011;46841;48.938;9.502;2023-02-28T10:27:00;28.45;;;13.93;;
60969;SDS011;46841;48.938;9.502;2023-02-28T10:29:27;28.65;;;14.35;;
60969;SDS011;46841;48.938;9.502;2023-02-28T10:31:52;24.60;;;13.48;;
60969;SDS011;46841;48.938;9.502;2023-02-28T10:34:17;26.48;;;13.35;;
60969;SDS011;46841;48.938;9.502;2023-02-28T10:36:43;23.95;;;13.82;;
60969;SDS011;46841;48.938;9.502;2023-02-28T10:41:52;26.20;;;13.23;;
60969;SDS011;46841;48.938;9.502;2023-02-28T10:44:22;28.58;;;13.82;;
60969;SDS011;46841;48.938;9.502;2023-02-28T10:46:47;29.35;;;14.63;;
60969;SDS011;46841;48.938;9.502;2023-02-28T10:49:20;25.10;;;13.45;;
60969;SDS011;46841;48.938;9.502;2023-02-28T10:51:46;28.73;;;13.75;;
60969;SDS011;46841;48.938;9.502;2023-02-28T10:54:24;23.95;;;12.15;;
60969;SDS011;46841;48.938;9.502;2023-02-28T10:57:04;24.85;;;12.98;;
60969;SDS011;46841;48.938;9.502;2023-02-28T10:59:30;22.42;;;11.82;;
60969;SDS011;46841;48.938;9.502;2023-02-28T11:01:56;23.05;;;12.45;;
60969;SDS011;46841;48.938;9.502;2023-02-28T11:07:21;22.60;;;13.70;;
60969;SDS011;46841;48.938;9.502;2023-02-28T11:09:48;26.42;;;12.98;;
60969;SDS011;46841;48.938;9.502;2023-02-28T11:12:25;26.15;;;13.55;;
60969;SDS011;46841;48.938;9.502;2023-02-28T11:14:52;23.75;;;12.15;;
60969;SDS011;46841;48.938;9.502;2023-02-28T11:17:22;23.00;;;12.55;;
60969;SDS011;46841;48.938;9.502;2023-02-28T11:19:49;24.52;;;12.25;;
60969;SDS011;46841;48.938;9.502;2023-02-28T11:22:20;18.50;;;11.73;;
60969;SDS011;46841;48.938;9.502;2023-02-28T11:24:47;24.20;;;12.77;;
60969;SDS011;46841;48.938;9.502;2023-02-28T11:27:38;27.52;;;13.68;;
60969;SDS011;46841;48.938;9.502;2023-02-28T11:30:05;26.70;;;13.55;;
60969;SDS011;46841;48.938;9.502;2023-02-28T11:32:48;27.35;;;13.25;;
60969;SDS011;46841;48.938;9.502;2023-02-28T11:35:14;20.83;;;12.65;;
60969;SDS011;46841;48.938;9.502;2023-02-28T11:37:42;19.85;;;12.18;;
60969;SDS011;46841;48.938;9.502;2023-02-28T11:40:17;19.05;;;12.52;;
60969;SDS011;46841;48.938;9.502;2023-02-28T11:45:19;24.58;;;12.27;;
60969;SDS011;46841;48.938;9.502;2023-02-28T11:53:01;21.48;;;11.98;;
60969;SDS011;46841;48.938;9.502;2023-02-28T11:55:35;21.35;;;12.60;;
60969;SDS011;46841;48.938;9.502;2023-02-28T12:03:18;21.73;;;12.32;;
60969;SDS011;46841;48.938;9.502;2023-02-28T12:05:48;23.63;;;12.13;;
60969;SDS011;46841;48.938;9.502;2023-02-28T12:10:52;21.77;;;12.60;;
60969;SDS011;46841;48.938;9.502;2023-02-28T12:21:27;22.63;;;12.77;;
60969;SDS011;46841;48.938;9.502;2023-02-28T12:26:44;20.02;;;13.73;;
60969;SDS011;46841;48.938;9.502;2023-02-28T12:29:19;25.67;;;13.18;;
60969;SDS011;46841;48.938;9.502;2023-02-28T12:31:59;19.75;;;12.07;;
60969;SDS011;46841;48.938;9.502;2023-02-28T12:34:31;21.58;;;12.88;;
60969;SDS011;46841;48.938;9.502;2023-02-28T12:36:58;23.95;;;14.00;;
60969;SDS011;46841;48.938;9.502;2023-02-28T12:41:56;20.58;;;12.82;;
60969;SDS011;46841;48.938;9.502;2023-02-28T12:46:50;22.85;;;13.18;;
60969;SDS011;46841;48.938;9.502;2023-02-28T12:49:17;25.52;;;14.05;;
60969;SDS011;46841;48.938;9.502;2023-02-28T12:51:44;21.17;;;13.23;;
60969;SDS011;46841;48.938;9.502;2023-02-28T12:54:55;25.63;;;13.63;;
60969;SDS011;46841;48.938;9.502;2023-02-28T13:00:00;23.20;;;12.70;;
60969;SDS011;46841;48.938;9.502;2023-02-28T13:04:57;20.85;;;12.10;;
60969;SDS011;46841;48.938;9.502;2023-02-28T13:07:39;21.33;;;12.70;;
60969;SDS011;46841;48.938;9.502;2023-02-28T13:10:06;24.38;;;12.93;;
60969;SDS011;46841;48.938;9.502;2023-02-28T13:12:32;21.17;;;12.75;;
60969;SDS011;46841;48.938;9.502;2023-02-28T13:15:08;28.90;;;13.70;;
60969;SDS011;46841;48.938;9.502;2023-02-28T13:17:41;20.38;;;14.57;;
60969;SDS011;46841;48.938;9.502;2023-02-28T13:20:20;21.67;;;12.60;;
60969;SDS011;46841;48.938;9.502;2023-02-28T13:22:47;20.90;;;13.13;;
60969;SDS011;46841;48.938;9.502;2023-02-28T13:27:48;19.95;;;12.57;;
60969;SDS011;46841;48.938;9.502;2023-02-28T13:35:48;21.98;;;12.85;;
60969;SDS011;46841;48.938;9.502;2023-02-28T13:38:32;20.80;;;12.63;;
60969;SDS011;46841;48.938;9.502;2023-02-28T13:41:21;24.73;;;12.75;;
60969;SDS011;46841;48.938;9.502;2023-02-28T13:46:23;19.05;;;12.55;;
60969;SDS011;46841;48.938;9.502;2023-02-28T13:48:49;23.35;;;13.77;;
60969;SDS011;46841;48.938;9.502;2023-02-28T13:54:00;20.13;;;12.65;;
60969;SDS011;46841;48.938;9.502;2023-02-28T13:56:31;22.83;;;14.48;;
60969;SDS011;46841;48.938;9.502;2023-02-28T14:01:31;21.90;;;13.25;;
60969;SDS011;46841;48.938;9.502;2023-02-28T14:06:49;22.17;;;13.73;;
60969;SDS011;46841;48.938;9.502;2023-02-28T14:09:23;22.83;;;13.63;;
60969;SDS011;46841;48.938;9.502;2023-02-28T14:11:48;20.02;;;13.07;;
60969;SDS011;46841;48.938;9.502;2023-02-28T14:16:58;22.45;;;12.48;;
60969;SDS011;46841;48.938;9.502;2023-02-28T14:19:24;19.02;;;12.77;;
60969;SDS011;46841;48.938;9.502;2023-02-28T14:34:46;23.33;;;13.57;;
60969;SDS011;46841;48.938;9.502;2023-02-28T14:37:19;22.02;;;13.63;;
60969;SDS011;46841;48.938;9.502;2023-02-28T14:39:45;23.60;;;13.07;;
60969;SDS011;46841;48.938;9.502;2023-02-28T14:42:31;26.40;;;13.30;;
60969;SDS011;46841;48.938;9.502;2023-02-28T14:44:57;21.43;;;12.90;;
60969;SDS011;46841;48.938;9.502;2023-02-28T14:47:23;23.98;;;12.88;;
60969;SDS011;46841;48.938;9.502;2023-02-28T14:49:50;20.73;;;12.48;;
60969;SDS011;46841;48.938;9.502;2023-02-28T14:52:24;24.30;;;13.00;;
60969;SDS011;46841;48.938;9.502;2023-02-28T14:54:55;21.48;;;12.55;;
60969;SDS011;46841;48.938;9.502;2023-02-28T14:59:56;20.90;;;12.93;;
60969;SDS011;46841;48.938;9.502;2023-02-28T15:02:22;23.02;;;12.38;;
60969;SDS011;46841;48.938;9.502;2023-02-28T15:04:54;19.87;;;12.67;;
60969;SDS011;46841;48.938;9.502;2023-02-28T15:07:20;22.08;;;13.18;;
60969;SDS011;46841;48.938;9.502;2023-02-28T15:10:16;20.05;;;12.88;;
60969;SDS011;46841;48.938;9.502;2023-02-28T15:12:39;20.25;;;12.15;;
60969;SDS011;46841;48.938;9.502;2023-02-28T15:15:05;20.55;;;12.48;;
60969;SDS011;46841;48.938;9.502;2023-02-28T15:17:30;19.08;;;12.18;;
60969;SDS011;46841;48.938;9.502;2023-02-28T15:19:56;20.80;;;12.10;;
60969;SDS011;46841;48.938;9.502;2023-02-28T15:22:26;23.65;;;13.90;;
60969;SDS011;46841;48.938;9.502;2023-02-28T15:24:54;20.60;;;13.50;;
60969;SDS011;46841;48.938;9.502;2023-02-28T15:27:29;22.83;;;13.70;;
60969;SDS011;46841;48.938;9.502;2023-02-28T15:30:00;23.08;;;14.90;;
60969;SDS011;46841;48.938;9.502;2023-02-28T15:32:31;22.42;;;14.10;;
60969;SDS011;46841;48.938;9.502;2023-02-28T15:34:57;20.95;;;13.02;;
60969;SDS011;46841;48.938;9.502;2023-02-28T15:45:49;19.45;;;12.43;;
60969;SDS011;46841;48.938;9.502;2023-02-28T15:48:22;19.02;;;12.35;;
60969;SDS011;46841;48.938;9.502;2023-02-28T15:50:49;24.52;;;13.82;;
60969;SDS011;46841;48.938;9.502;2023-02-28T15:53:19;28.15;;;15.35;;
60969;SDS011;46841;48.938;9.502;2023-02-28T15:55:51;21.30;;;13.38;;
60969;SDS011;46841;48.938;9.502;2023-02-28T15:58:17;27.83;;;14.07;;
60969;SDS011;46841;48.938;9.502;2023-02-28T16:00:43;22.98;;;13.40;;
60969;SDS011;46841;48.938;9.502;2023-02-28T16:03:27;26.23;;;15.45;;
60969;SDS011;46841;48.938;9.502;2023-02-28T16:06:08;26.70;;;15.82;;
60969;SDS011;46841;48.938;9.502;2023-02-28T16:08:34;23.40;;;14.25;;
60969;SDS011;46841;48.938;9.502;2023-02-28T16:10:59;22.63;;;13.45;;
60969;SDS011;46841;48.938;9.502;2023-02-28T16:13:24;21.77;;;13.02;;
60969;SDS011;46841;48.938;9.502;2023-02-28T16:15:49;22.92;;;13.05;;
60969;SDS011;46841;48.938;9.502;2023-02-28T16:18:16;22.42;;;13.57;;
60969;SDS011;46841;48.938;9.502;2023-02-28T16:20:41;24.92;;;13.63;;
60969;SDS011;46841;48.938;9.502;2023-02-28T16:23:09;30.63;;;13.85;;
60969;SDS011;46841;48.938;9.502;2023-02-28T16:25:35;24.23;;;14.38;;
60969;SDS011;46841;48.938;9.502;2023-02-28T16:28:01;23.27;;;13.77;;
60969;SDS011;46841;48.938;9.502;2023-02-28T16:30:27;26.10;;;12.40;;
60969;SDS011;46841;48.938;9.502;2023-02-28T16:32:54;26.55;;;14.10;;
60969;SDS011;46841;48.938;9.502;2023-02-28T16:35:20;24.30;;;13.47;;
60969;SDS011;46841;48.938;9.502;2023-02-28T16:37:45;26.95;;;13.73;;
60969;SDS011;46841;48.938;9.502;2023-02-28T16:40:18;24.20;;;12.63;;
60969;SDS011;46841;48.938;9.502;2023-02-28T16:42:46;24.15;;;13.27;;
60969;SDS011;46841;48.938;9.502;2023-02-28T16:45:16;24.73;;;13.30;;
60969;SDS011;46841;48.938;9.502;2023-02-28T16:47:42;25.38;;;14.27;;
60969;SDS011;46841;48.938;9.502;2023-02-28T16:50:14;26.02;;;13.77;;
60969;SDS011;46841;48.938;9.502;2023-02-28T16:52:40;27.00;;;14.30;;
60969;SDS011;46841;48.938;9.502;2023-02-28T16:55:05;29.20;;;15.00;;
60969;SDS011;46841;48.938;9.502;2023-02-28T16:57:30;28.52;;;15.35;;
60969;SDS011;46841;48.938;9.502;2023-02-28T16:59:56;27.73;;;15.07;;
60969;SDS011;46841;48.938;9.502;2023-02-28T17:02:21;26.80;;;14.52;;
60969;SDS011;46841;48.938;9.502;2023-02-28T17:04:46;26.33;;;13.75;;
60969;SDS011;46841;48.938;9.502;2023-02-28T17:07:15;28.00;;;13.82;;